sensor_id;sensor_type;location;lat;lon;timestamp;pressure;altitude;pressure_sealevel;temperature
6454;BMP180;3260;52.438;13.502;2022-11-20T05:00:50;100280.00;;;0.50
6454;BMP180;3260;52.438;13.502;2022-11-20T05:03:18;100284.00;;;1.30
6454;BMP180;3260;52.438;13.502;2022-11-20T05:05:47;100277.00;;;0.80
6454;BMP180;3260;52.438;13.502;2022-11-20T05:08:15;100274.00;;;1.00
6454;BMP180;3260;52.438;13.502;2022-11-20T05:10:43;100265.00;;;1.00
6454;BMP180;3260;52.438;13.502;2022-11-20T05:13:11;100272.00;;;0.70
6454;BMP180;3260;52.438;13.502;2022-11-20T05:15:40;100268.00;;;0.70
6454;BMP180;3260;52.438;13.502;2022-11-20T05:18:09;100252.00;;;1.00
6454;BMP180;3260;52.438;13.502;2022-11-20T05:20:37;100264.00;;;1.10
6454;BMP180;3260;52.438;13.502;2022-11-20T05:23:05;100232.00;;;0.90
6454;BMP180;3260;52.438;13.502;2022-11-20T05:25:34;100255.00;;;1.00
6454;BMP180;3260;52.438;13.502;2022-11-20T05:28:02;100258.00;;;1.10
6454;BMP180;3260;52.438;13.502;2022-11-20T05:30:30;100258.00;;;1.30
6454;BMP180;3260;52.438;13.502;2022-11-20T05:32:58;100255.00;;;1.40
6454;BMP180;3260;52.438;13.502;2022-11-20T05:35:28;100260.00;;;1.00
6454;BMP180;3260;52.438;13.502;2022-11-20T05:37:56;100236.00;;;1.20
6454;BMP180;3260;52.438;13.502;2022-11-20T05:40:24;100272.00;;;0.90
6454;BMP180;3260;52.438;13.502;2022-11-20T05:42:53;100267.00;;;0.70
6454;BMP180;3260;52.438;13.502;2022-11-20T05:45:22;100262.00;;;0.90
6454;BMP180;3260;52.438;13.502;2022-11-20T05:47:50;100264.00;;;1.30
6454;BMP180;3260;52.438;13.502;2022-11-20T05:50:18;100263.00;;;1.50
6454;BMP180;3260;52.438;13.502;2022-11-20T05:52:48;100256.00;;;1.70
6454;BMP180;3260;52.438;13.502;2022-11-20T05:55:16;100258.00;;;1.40
6454;BMP180;3260;52.438;13.502;2022-11-20T05:57:44;100259.00;;;1.30
6454;BMP180;3260;52.438;13.502;2022-11-20T06:00:14;100237.00;;;1.30
6454;BMP180;3260;52.438;13.502;2022-11-20T06:02:43;100252.00;;;1.20
6454;BMP180;3260;52.438;13.502;2022-11-20T06:05:11;100257.00;;;1.20
6454;BMP180;3260;52.438;13.502;2022-11-20T06:07:40;100237.00;;;1.20
6454;BMP180;3260;52.438;13.502;2022-11-20T06:10:11;100251.00;;;1.20
6454;BMP180;3260;52.438;13.502;2022-11-20T06:12:40;100255.00;;;1.10
6454;BMP180;3260;52.438;13.502;2022-11-20T06:15:09;100254.00;;;1.10
6454;BMP180;3260;52.438;13.502;2022-11-20T06:17:37;100251.00;;;1.30
6454;BMP180;3260;52.438;13.502;2022-11-20T06:20:07;100252.00;;;1.30
6454;BMP180;3260;52.438;13.502;2022-11-20T06:22:35;100245.00;;;1.50
6454;BMP180;3260;52.438;13.502;2022-11-20T06:25:04;100249.00;;;1.40
6454;BMP180;3260;52.438;13.502;2022-11-20T06:27:34;100247.00;;;1.40
6454;BMP180;3260;52.438;13.502;2022-11-20T06:30:02;100250.00;;;1.20
6454;BMP180;3260;52.438;13.502;2022-11-20T06:32:31;100255.00;;;1.30
6454;BMP180;3260;52.438;13.502;2022-11-20T06:34:59;100253.00;;;1.10
6454;BMP180;3260;52.438;13.502;2022-11-20T06:37:27;100244.00;;;1.10
6454;BMP180;3260;52.438;13.502;2022-11-20T06:39:55;100256.00;;;1.20
6454;BMP180;3260;52.438;13.502;2022-11-20T06:42:23;100249.00;;;0.90
6454;BMP180;3260;52.438;13.502;2022-11-20T06:44:53;100249.00;;;0.90
6454;BMP180;3260;52.438;13.502;2022-11-20T06:47:22;100254.00;;;1.00
6454;BMP180;3260;52.438;13.502;2022-11-20T06:49:50;100244.00;;;1.00
6454;BMP180;3260;52.438;13.502;2022-11-20T06:52:18;100250.00;;;1.10
6454;BMP180;3260;52.438;13.502;2022-11-20T06:54:46;100240.00;;;1.40
6454;BMP180;3260;52.438;13.502;2022-11-20T06:57:15;100240.00;;;1.10
6454;BMP180;3260;52.438;13.502;2022-11-20T06:59:43;100243.00;;;1.10
6454;BMP180;3260;52.438;13.502;2022-11-20T07:02:12;100229.00;;;0.80
6454;BMP180;3260;52.438;13.502;2022-11-20T07:04:40;100232.00;;;0.80
6454;BMP180;3260;52.438;13.502;2022-11-20T07:07:09;100236.00;;;0.60
6454;BMP180;3260;52.438;13.502;2022-11-20T07:09:37;100233.00;;;0.60
6454;BMP180;3260;52.438;13.502;2022-11-20T07:12:06;100238.00;;;0.70
6454;BMP180;3260;52.438;13.502;2022-11-20T07:14:34;100239.00;;;0.70
6454;BMP180;3260;52.438;13.502;2022-11-20T07:17:02;100244.00;;;0.50
6454;BMP180;3260;52.438;13.502;2022-11-20T07:19:32;100230.00;;;0.60
6454;BMP180;3260;52.438;13.502;2022-11-20T07:22:00;100230.00;;;1.00
6454;BMP180;3260;52.438;13.502;2022-11-20T07:24:28;100235.00;;;1.20
6454;BMP180;3260;52.438;13.502;2022-11-20T07:26:56;100224.00;;;0.90
6454;BMP180;3260;52.438;13.502;2022-11-20T07:29:24;100229.00;;;0.60
6454;BMP180;3260;52.438;13.502;2022-11-20T07:31:53;100234.00;;;0.40
6454;BMP180;3260;52.438;13.502;2022-11-20T07:34:22;100234.00;;;0.60
6454;BMP180;3260;52.438;13.502;2022-11-20T07:36:52;100230.00;;;0.80
6454;BMP180;3260;52.438;13.502;2022-11-20T07:39:20;100247.00;;;0.30
6454;BMP180;3260;52.438;13.502;2022-11-20T07:41:49;100240.00;;;0.60
6454;BMP180;3260;52.438;13.502;2022-11-20T07:44:17;100240.00;;;0.50
6454;BMP180;3260;52.438;13.502;2022-11-20T07:46:45;100229.00;;;0.50
6454;BMP180;3260;52.438;13.502;2022-11-20T07:49:13;100243.00;;;0.60
6454;BMP180;3260;52.438;13.502;2022-11-20T07:51:41;100241.00;;;0.60
6454;BMP180;3260;52.438;13.502;2022-11-20T07:54:11;100225.00;;;0.70
6454;BMP180;3260;52.438;13.502;2022-11-20T07:56:39;100235.00;;;1.00
6454;BMP180;3260;52.438;13.502;2022-11-20T07:59:07;100230.00;;;1.20
6454;BMP180;3260;52.438;13.502;2022-11-20T08:01:36;100234.00;;;1.00
6454;BMP180;3260;52.438;13.502;2022-11-20T08:04:04;100229.00;;;1.30
6454;BMP180;3260;52.438;13.502;2022-11-20T08:06:32;100242.00;;;1.30
6454;BMP180;3260;52.438;13.502;2022-11-20T08:09:01;100224.00;;;1.40
6454;BMP180;3260;52.438;13.502;2022-11-20T08:11:30;100233.00;;;1.30
6454;BMP180;3260;52.438;13.502;2022-11-20T08:14:16;100227.00;;;1.40
6454;BMP180;3260;52.438;13.502;2022-11-20T08:16:47;100226.00;;;1.20
6454;BMP180;3260;52.438;13.502;2022-11-20T08:19:18;100234.00;;;1.20
6454;BMP180;3260;52.438;13.502;2022-11-20T08:21:47;100232.00;;;1.10
6454;BMP180;3260;52.438;13.502;2022-11-20T08:24:15;100225.00;;;1.10
6454;BMP180;3260;52.438;13.502;2022-11-20T08:26:44;100211.00;;;0.90
6454;BMP180;3260;52.438;13.502;2022-11-20T08:29:13;100230.00;;;1.80
6454;BMP180;3260;52.438;13.502;2022-11-20T08:31:41;100235.00;;;1.60
6454;BMP180;3260;52.438;13.502;2022-11-20T08:34:09;100224.00;;;1.80
6454;BMP180;3260;52.438;13.502;2022-11-20T08:36:44;100222.00;;;1.60
6454;BMP180;3260;52.438;13.502;2022-11-20T08:39:13;100229.00;;;1.60
6454;BMP180;3260;52.438;13.502;2022-11-20T08:41:41;100227.00;;;1.40
6454;BMP180;3260;52.438;13.502;2022-11-20T08:44:11;100218.00;;;1.20
6454;BMP180;3260;52.438;13.502;2022-11-20T08:46:41;100202.00;;;1.20
6454;BMP180;3260;52.438;13.502;2022-11-20T08:49:12;100219.00;;;1.40
6454;BMP180;3260;52.438;13.502;2022-11-20T08:51:40;100213.00;;;1.20
6454;BMP180;3260;52.438;13.502;2022-11-20T08:54:09;100212.00;;;1.10
6454;BMP180;3260;52.438;13.502;2022-11-20T08:56:37;100210.00;;;1.40
6454;BMP180;3260;52.438;13.502;2022-11-20T08:59:06;100212.00;;;1.20
6454;BMP180;3260;52.438;13.502;2022-11-20T09:01:55;100199.00;;;1.10
6454;BMP180;3260;52.438;13.502;2022-11-20T09:04:23;100213.00;;;1.40
6454;BMP180;3260;52.438;13.502;2022-11-20T09:06:52;100205.00;;;1.70
6454;BMP180;3260;52.438;13.502;2022-11-20T09:09:20;100215.00;;;1.40
6454;BMP180;3260;52.438;13.502;2022-11-20T09:11:49;100211.00;;;1.10
6454;BMP180;3260;52.438;13.502;2022-11-20T09:14:17;100207.00;;;0.80
6454;BMP180;3260;52.438;13.502;2022-11-20T09:16:46;100208.00;;;0.60
6454;BMP180;3260;52.438;13.502;2022-11-20T09:19:15;100206.00;;;0.70
6454;BMP180;3260;52.438;13.502;2022-11-20T09:22:01;100216.00;;;1.00
6454;BMP180;3260;52.438;13.502;2022-11-20T09:24:29;100198.00;;;1.00
6454;BMP180;3260;52.438;13.502;2022-11-20T09:26:57;100214.00;;;0.90
6454;BMP180;3260;52.438;13.502;2022-11-20T09:29:26;100219.00;;;0.60
6454;BMP180;3260;52.438;13.502;2022-11-20T09:31:54;100201.00;;;0.60
6454;BMP180;3260;52.438;13.502;2022-11-20T09:34:24;100219.00;;;0.70
6454;BMP180;3260;52.438;13.502;2022-11-20T09:36:52;100207.00;;;0.90
6454;BMP180;3260;52.438;13.502;2022-11-20T09:39:21;100207.00;;;0.50
6454;BMP180;3260;52.438;13.502;2022-11-20T09:42:08;100212.00;;;0.50
6454;BMP180;3260;52.438;13.502;2022-11-20T09:45:06;100210.00;;;0.40
6454;BMP180;3260;52.438;13.502;2022-11-20T09:47:58;100210.00;;;0.60
6454;BMP180;3260;52.438;13.502;2022-11-20T09:50:36;100199.00;;;0.70
6454;BMP180;3260;52.438;13.502;2022-11-20T09:53:19;100215.00;;;0.70
6454;BMP180;3260;52.438;13.502;2022-11-20T09:55:49;100197.00;;;0.70
6454;BMP180;3260;52.438;13.502;2022-11-20T09:58:31;100198.00;;;1.00
6454;BMP180;3260;52.438;13.502;2022-11-20T10:01:10;100200.00;;;0.60
6454;BMP180;3260;52.438;13.502;2022-11-20T10:03:53;100203.00;;;1.10
6454;BMP180;3260;52.438;13.502;2022-11-20T10:06:31;100203.00;;;0.70
6454;BMP180;3260;52.438;13.502;2022-11-20T10:09:18;100194.00;;;0.80
6454;BMP180;3260;52.438;13.502;2022-11-20T10:11:59;100187.00;;;1.40
6454;BMP180;3260;52.438;13.502;2022-11-20T10:14:41;100190.00;;;1.10
6454;BMP180;3260;52.438;13.502;2022-11-20T10:17:28;100191.00;;;1.00
6454;BMP180;3260;52.438;13.502;2022-11-20T10:20:15;100189.00;;;0.80
6454;BMP180;3260;52.438;13.502;2022-11-20T10:23:07;100194.00;;;1.00
6454;BMP180;3260;52.438;13.502;2022-11-20T10:25:42;100189.00;;;1.40
6454;BMP180;3260;52.438;13.502;2022-11-20T10:28:27;100187.00;;;1.30
6454;BMP180;3260;52.438;13.502;2022-11-20T10:31:06;100193.00;;;1.10
6454;BMP180;3260;52.438;13.502;2022-11-20T10:33:40;100179.00;;;0.90
6454;BMP180;3260;52.438;13.502;2022-11-20T10:36:35;100178.00;;;1.30
6454;BMP180;3260;52.438;13.502;2022-11-20T10:39:14;100180.00;;;1.70
6454;BMP180;3260;52.438;13.502;2022-11-20T10:41:50;100169.00;;;1.20
6454;BMP180;3260;52.438;13.502;2022-11-20T10:44:22;100182.00;;;1.00
6454;BMP180;3260;52.438;13.502;2022-11-20T10:47:15;100173.00;;;1.20
6454;BMP180;3260;52.438;13.502;2022-11-20T10:49:50;100173.00;;;1.10
6454;BMP180;3260;52.438;13.502;2022-11-20T10:52:29;100169.00;;;1.60
6454;BMP180;3260;52.438;13.502;2022-11-20T10:55:13;100175.00;;;1.60
6454;BMP180;3260;52.438;13.502;2022-11-20T10:57:54;100161.00;;;1.40
6454;BMP180;3260;52.438;13.502;2022-11-20T11:00:25;100169.00;;;1.60
6454;BMP180;3260;52.438;13.502;2022-11-20T11:02:54;100166.00;;;1.70
6454;BMP180;3260;52.438;13.502;2022-11-20T11:05:36;100158.00;;;2.00
6454;BMP180;3260;52.438;13.502;2022-11-20T11:08:14;100171.00;;;1.70
6454;BMP180;3260;52.438;13.502;2022-11-20T11:10:52;100156.00;;;1.70
6454;BMP180;3260;52.438;13.502;2022-11-20T11:13:22;100160.00;;;1.60
6454;BMP180;3260;52.438;13.502;2022-11-20T11:15:51;100161.00;;;1.70
6454;BMP180;3260;52.438;13.502;2022-11-20T11:18:25;100167.00;;;1.60
6454;BMP180;3260;52.438;13.502;2022-11-20T11:20:55;100175.00;;;1.50
6454;BMP180;3260;52.438;13.502;2022-11-20T11:23:32;100164.00;;;1.60
6454;BMP180;3260;52.438;13.502;2022-11-20T11:26:05;100160.00;;;1.70
6454;BMP180;3260;52.438;13.502;2022-11-20T11:28:34;100151.00;;;1.60
6454;BMP180;3260;52.438;13.502;2022-11-20T11:31:02;100159.00;;;2.00
6454;BMP180;3260;52.438;13.502;2022-11-20T11:33:32;100153.00;;;2.00
6454;BMP180;3260;52.438;13.502;2022-11-20T11:36:03;100150.00;;;2.00
6454;BMP180;3260;52.438;13.502;2022-11-20T11:38:37;100159.00;;;2.30
6454;BMP180;3260;52.438;13.502;2022-11-20T11:41:14;100140.00;;;2.60
6454;BMP180;3260;52.438;13.502;2022-11-20T11:43:52;100147.00;;;2.60
6454;BMP180;3260;52.438;13.502;2022-11-20T11:46:43;100116.00;;;2.90
6454;BMP180;3260;52.438;13.502;2022-11-20T11:49:17;100146.00;;;3.30
6454;BMP180;3260;52.438;13.502;2022-11-20T11:52:02;100151.00;;;2.80
6454;BMP180;3260;52.438;13.502;2022-11-20T11:54:38;100143.00;;;3.20
6454;BMP180;3260;52.438;13.502;2022-11-20T11:57:20;100147.00;;;3.70
6454;BMP180;3260;52.438;13.502;2022-11-20T12:00:02;100100.00;;;3.00
6454;BMP180;3260;52.438;13.502;2022-11-20T12:02:41;100133.00;;;3.40
6454;BMP180;3260;52.438;13.502;2022-11-20T12:05:21;100127.00;;;3.30
6454;BMP180;3260;52.438;13.502;2022-11-20T12:07:58;100135.00;;;3.90
6454;BMP180;3260;52.438;13.502;2022-11-20T12:10:43;100122.00;;;3.50
6454;BMP180;3260;52.438;13.502;2022-11-20T12:13:37;100138.00;;;3.80
6454;BMP180;3260;52.438;13.502;2022-11-20T12:16:12;100140.00;;;3.60
6454;BMP180;3260;52.438;13.502;2022-11-20T12:18:42;100137.00;;;3.50
6454;BMP180;3260;52.438;13.502;2022-11-20T12:21:20;100134.00;;;3.60
6454;BMP180;3260;52.438;13.502;2022-11-20T12:24:11;100127.00;;;3.30
6454;BMP180;3260;52.438;13.502;2022-11-20T12:26:57;100127.00;;;3.70
6454;BMP180;3260;52.438;13.502;2022-11-20T12:29:48;100118.00;;;4.20
6454;BMP180;3260;52.438;13.502;2022-11-20T12:35:47;100106.00;;;5.70
6454;BMP180;3260;52.438;13.502;2022-11-20T12:38:49;100131.00;;;5.50
6454;BMP180;3260;52.438;13.502;2022-11-20T12:41:35;100123.00;;;5.20
6454;BMP180;3260;52.438;13.502;2022-11-20T12:44:57;100127.00;;;4.50
6454;BMP180;3260;52.438;13.502;2022-11-20T12:48:07;100126.00;;;4.70
6454;BMP180;3260;52.438;13.502;2022-11-20T12:50:50;100109.00;;;4.20
6454;BMP180;3260;52.438;13.502;2022-11-20T12:53:51;100111.00;;;4.00
6454;BMP180;3260;52.438;13.502;2022-11-20T12:56:36;100110.00;;;3.40
6454;BMP180;3260;52.438;13.502;2022-11-20T12:59:29;100107.00;;;3.50
6454;BMP180;3260;52.438;13.502;2022-11-20T13:02:18;100109.00;;;3.60
6454;BMP180;3260;52.438;13.502;2022-11-20T13:05:12;100110.00;;;3.30
6454;BMP180;3260;52.438;13.502;2022-11-20T13:07:44;100098.00;;;3.00
6454;BMP180;3260;52.438;13.502;2022-11-20T13:10:21;100087.00;;;3.00
6454;BMP180;3260;52.438;13.502;2022-11-20T13:12:58;100092.00;;;2.90
6454;BMP180;3260;52.438;13.502;2022-11-20T13:15:44;100090.00;;;3.00
6454;BMP180;3260;52.438;13.502;2022-11-20T13:18:17;100088.00;;;2.80
6454;BMP180;3260;52.438;13.502;2022-11-20T13:20:47;100100.00;;;2.80
6454;BMP180;3260;52.438;13.502;2022-11-20T13:23:27;100074.00;;;2.50
6454;BMP180;3260;52.438;13.502;2022-11-20T13:26:15;100079.00;;;2.40
6454;BMP180;3260;52.438;13.502;2022-11-20T13:28:45;100074.00;;;2.10
6454;BMP180;3260;52.438;13.502;2022-11-20T13:31:31;100069.00;;;2.20
6454;BMP180;3260;52.438;13.502;2022-11-20T13:34:04;100084.00;;;2.60
6454;BMP180;3260;52.438;13.502;2022-11-20T13:36:33;100069.00;;;2.70
6454;BMP180;3260;52.438;13.502;2022-11-20T13:39:03;100077.00;;;2.60
6454;BMP180;3260;52.438;13.502;2022-11-20T13:41:35;100069.00;;;2.80
6454;BMP180;3260;52.438;13.502;2022-11-20T13:44:15;100075.00;;;2.40
6454;BMP180;3260;52.438;13.502;2022-11-20T13:46:50;100065.00;;;2.10
6454;BMP180;3260;52.438;13.502;2022-11-20T13:49:27;100065.00;;;2.20
6454;BMP180;3260;52.438;13.502;2022-11-20T13:52:20;100067.00;;;2.00
6454;BMP180;3260;52.438;13.502;2022-11-20T13:55:13;100065.00;;;1.90
6454;BMP180;3260;52.438;13.502;2022-11-20T13:58:18;100032.00;;;2.20
6454;BMP180;3260;52.438;13.502;2022-11-20T14:01:08;100069.00;;;2.10
6454;BMP180;3260;52.438;13.502;2022-11-20T14:03:38;100076.00;;;2.40
6454;BMP180;3260;52.438;13.502;2022-11-20T14:06:30;100077.00;;;2.60
6454;BMP180;3260;52.438;13.502;2022-11-20T14:09:00;100067.00;;;2.10
6454;BMP180;3260;52.438;13.502;2022-11-20T14:11:29;100059.00;;;2.50
6454;BMP180;3260;52.438;13.502;2022-11-20T14:14:02;100073.00;;;1.90
6454;BMP180;3260;52.438;13.502;2022-11-20T14:16:34;100083.00;;;2.40
6454;BMP180;3260;52.438;13.502;2022-11-20T14:19:26;100073.00;;;2.30
6454;BMP180;3260;52.438;13.502;2022-11-20T14:22:18;100057.00;;;2.10
6454;BMP180;3260;52.438;13.502;2022-11-20T14:24:48;100063.00;;;1.90
6454;BMP180;3260;52.438;13.502;2022-11-20T14:27:20;100063.00;;;2.20
6454;BMP180;3260;52.438;13.502;2022-11-20T14:29:50;100049.00;;;2.20
6454;BMP180;3260;52.438;13.502;2022-11-20T14:32:21;100054.00;;;2.10
6454;BMP180;3260;52.438;13.502;2022-11-20T14:34:51;100059.00;;;2.40
6454;BMP180;3260;52.438;13.502;2022-11-20T14:37:25;100059.00;;;1.90
6454;BMP180;3260;52.438;13.502;2022-11-20T14:39:56;100005.00;;;1.80
6454;BMP180;3260;52.438;13.502;2022-11-20T14:42:28;100070.00;;;2.30
6454;BMP180;3260;52.438;13.502;2022-11-20T14:44:59;100065.00;;;2.30
6454;BMP180;3260;52.438;13.502;2022-11-20T14:47:31;100063.00;;;2.20
6454;BMP180;3260;52.438;13.502;2022-11-20T14:50:01;100030.00;;;2.60
6454;BMP180;3260;52.438;13.502;2022-11-20T14:52:37;100068.00;;;2.20
6454;BMP180;3260;52.438;13.502;2022-11-20T14:55:08;100067.00;;;2.00
6454;BMP180;3260;52.438;13.502;2022-11-20T14:57:37;100055.00;;;1.90
6454;BMP180;3260;52.438;13.502;2022-11-20T15:00:19;100074.00;;;1.90
6454;BMP180;3260;52.438;13.502;2022-11-20T15:02:49;100054.00;;;1.80
6454;BMP180;3260;52.438;13.502;2022-11-20T15:05:20;100068.00;;;1.70
6454;BMP180;3260;52.438;13.502;2022-11-20T15:08:04;100070.00;;;1.60
6454;BMP180;3260;52.438;13.502;2022-11-20T15:10:33;100058.00;;;1.90
6454;BMP180;3260;52.438;13.502;2022-11-20T15:13:05;100019.00;;;1.90
6454;BMP180;3260;52.438;13.502;2022-11-20T15:15:46;100064.00;;;2.00
6454;BMP180;3260;52.438;13.502;2022-11-20T15:18:18;100056.00;;;1.90
6454;BMP180;3260;52.438;13.502;2022-11-20T15:20:48;100065.00;;;2.20
6454;BMP180;3260;52.438;13.502;2022-11-20T15:23:18;100065.00;;;1.80
6454;BMP180;3260;52.438;13.502;2022-11-20T15:25:48;100053.00;;;2.10
6454;BMP180;3260;52.438;13.502;2022-11-20T15:28:21;100031.00;;;1.80
6454;BMP180;3260;52.438;13.502;2022-11-20T15:30:50;100051.00;;;1.90
6454;BMP180;3260;52.438;13.502;2022-11-20T15:33:18;100035.00;;;2.10
6454;BMP180;3260;52.438;13.502;2022-11-20T15:35:46;100051.00;;;1.80
6454;BMP180;3260;52.438;13.502;2022-11-20T15:38:14;100056.00;;;2.00
6454;BMP180;3260;52.438;13.502;2022-11-20T15:40:44;100044.00;;;1.90
6454;BMP180;3260;52.438;13.502;2022-11-20T15:43:12;100041.00;;;2.10
6454;BMP180;3260;52.438;13.502;2022-11-20T15:45:43;100056.00;;;2.00
6454;BMP180;3260;52.438;13.502;2022-11-20T15:48:16;100044.00;;;1.80
6454;BMP180;3260;52.438;13.502;2022-11-20T15:50:54;100040.00;;;2.00
6454;BMP180;3260;52.438;13.502;2022-11-20T15:53:24;100043.00;;;2.10
6454;BMP180;3260;52.438;13.502;2022-11-20T15:55:54;100041.00;;;2.20
6454;BMP180;3260;52.438;13.502;2022-11-20T15:58:22;100046.00;;;2.40
6454;BMP180;3260;52.438;13.502;2022-11-20T16:00:51;100041.00;;;2.40
6454;BMP180;3260;52.438;13.502;2022-11-20T16:03:19;100043.00;;;2.40
6454;BMP180;3260;52.438;13.502;2022-11-20T16:05:48;100036.00;;;2.30
6454;BMP180;3260;52.438;13.502;2022-11-20T16:08:16;100044.00;;;2.60
6454;BMP180;3260;52.438;13.502;2022-11-20T16:10:45;100037.00;;;2.50
6454;BMP180;3260;52.438;13.502;2022-11-20T16:13:16;100036.00;;;2.40
6454;BMP180;3260;52.438;13.502;2022-11-20T16:16:05;100031.00;;;2.20
6454;BMP180;3260;52.438;13.502;2022-11-20T16:18:35;100029.00;;;2.40
6454;BMP180;3260;52.438;13.502;2022-11-20T16:21:04;100029.00;;;2.20
6454;BMP180;3260;52.438;13.502;2022-11-20T16:23:32;100026.00;;;2.20
6454;BMP180;3260;52.438;13.502;2022-11-20T16:26:10;100036.00;;;2.00
6454;BMP180;3260;52.438;13.502;2022-11-20T16:28:40;100024.00;;;1.80
6454;BMP180;3260;52.438;13.502;2022-11-20T16:31:10;100014.00;;;1.90
6454;BMP180;3260;52.438;13.502;2022-11-20T16:33:40;100035.00;;;1.70
6454;BMP180;3260;52.438;13.502;2022-11-20T16:36:10;100026.00;;;1.40
6454;BMP180;3260;52.438;13.502;2022-11-20T16:38:39;100035.00;;;1.30
6454;BMP180;3260;52.438;13.502;2022-11-20T16:41:09;100009.00;;;1.20
6454;BMP180;3260;52.438;13.502;2022-11-20T16:43:47;100022.00;;;1.40
6454;BMP180;3260;52.438;13.502;2022-11-20T16:46:17;100027.00;;;1.30
6454;BMP180;3260;52.438;13.502;2022-11-20T16:48:52;100030.00;;;1.30
6454;BMP180;3260;52.438;13.502;2022-11-20T16:51:22;100025.00;;;1.00
6454;BMP180;3260;52.438;13.502;2022-11-20T16:53:51;100034.00;;;1.20
6454;BMP180;3260;52.438;13.502;2022-11-20T16:56:24;100026.00;;;1.10
6454;BMP180;3260;52.438;13.502;2022-11-20T16:58:56;100021.00;;;1.20
6454;BMP180;3260;52.438;13.502;2022-11-20T17:01:26;100047.00;;;0.90
6454;BMP180;3260;52.438;13.502;2022-11-20T17:03:57;100029.00;;;0.90
6454;BMP180;3260;52.438;13.502;2022-11-20T17:06:28;100036.00;;;0.90
6454;BMP180;3260;52.438;13.502;2022-11-20T17:08:57;100037.00;;;1.00
6454;BMP180;3260;52.438;13.502;2022-11-20T17:11:27;100023.00;;;1.10
6454;BMP180;3260;52.438;13.502;2022-11-20T17:13:57;100026.00;;;0.80
6454;BMP180;3260;52.438;13.502;2022-11-20T17:16:27;100023.00;;;0.80
6454;BMP180;3260;52.438;13.502;2022-11-20T17:18:56;100030.00;;;1.10
6454;BMP180;3260;52.438;13.502;2022-11-20T17:21:29;100018.00;;;0.90
6454;BMP180;3260;52.438;13.502;2022-11-20T17:24:00;100017.00;;;0.70
6454;BMP180;3260;52.438;13.502;2022-11-20T17:26:29;100041.00;;;0.90
6454;BMP180;3260;52.438;13.502;2022-11-20T17:29:01;100024.00;;;0.90
6454;BMP180;3260;52.438;13.502;2022-11-20T17:31:32;100024.00;;;0.90
6454;BMP180;3260;52.438;13.502;2022-11-20T17:34:01;100027.00;;;1.00
6454;BMP180;3260;52.438;13.502;2022-11-20T17:36:30;100016.00;;;1.00
6454;BMP180;3260;52.438;13.502;2022-11-20T17:38:59;100007.00;;;1.00
6454;BMP180;3260;52.438;13.502;2022-11-20T17:41:28;100023.00;;;1.40
6454;BMP180;3260;52.438;13.502;2022-11-20T17:44:00;100023.00;;;1.40
6454;BMP180;3260;52.438;13.502;2022-11-20T17:46:30;100005.00;;;1.50
6454;BMP180;3260;52.438;13.502;2022-11-20T17:49:01;100034.00;;;1.60
6454;BMP180;3260;52.438;13.502;2022-11-20T17:51:32;100023.00;;;2.10
6454;BMP180;3260;52.438;13.502;2022-11-20T17:54:04;100024.00;;;1.80
6454;BMP180;3260;52.438;13.502;2022-11-20T17:56:35;100033.00;;;1.90
6454;BMP180;3260;52.438;13.502;2022-11-20T17:59:22;100034.00;;;1.70
6454;BMP180;3260;52.438;13.502;2022-11-20T18:01:50;100020.00;;;1.90
6454;BMP180;3260;52.438;13.502;2022-11-20T18:04:20;100008.00;;;1.70
6454;BMP180;3260;52.438;13.502;2022-11-20T18:06:49;100014.00;;;2.00
6454;BMP180;3260;52.438;13.502;2022-11-20T18:09:17;100009.00;;;1.50
6454;BMP180;3260;52.438;13.502;2022-11-20T18:11:45;99972.00;;;1.50
6454;BMP180;3260;52.438;13.502;2022-11-20T18:14:16;100002.00;;;1.50
6454;BMP180;3260;52.438;13.502;2022-11-20T18:16:58;99997.00;;;1.40
6454;BMP180;3260;52.438;13.502;2022-11-20T18:19:29;99984.00;;;1.20
6454;BMP180;3260;52.438;13.502;2022-11-20T18:21:59;99994.00;;;1.50
6454;BMP180;3260;52.438;13.502;2022-11-20T18:24:28;99986.00;;;1.80
6454;BMP180;3260;52.438;13.502;2022-11-20T18:26:57;99982.00;;;1.50
6454;BMP180;3260;52.438;13.502;2022-11-20T18:29:26;99984.00;;;0.90
6454;BMP180;3260;52.438;13.502;2022-11-20T18:31:59;99985.00;;;0.70
6454;BMP180;3260;52.438;13.502;2022-11-20T18:34:27;99981.00;;;0.70
6454;BMP180;3260;52.438;13.502;2022-11-20T18:36:56;99965.00;;;0.80
6454;BMP180;3260;52.438;13.502;2022-11-20T18:39:25;99974.00;;;0.70
6454;BMP180;3260;52.438;13.502;2022-11-20T18:41:53;99979.00;;;0.40
6454;BMP180;3260;52.438;13.502;2022-11-20T18:44:38;99977.00;;;0.60
6454;BMP180;3260;52.438;13.502;2022-11-20T18:47:24;99974.00;;;0.50
6454;BMP180;3260;52.438;13.502;2022-11-20T18:49:55;99979.00;;;0.90
6454;BMP180;3260;52.438;13.502;2022-11-20T18:52:26;99981.00;;;0.80
6454;BMP180;3260;52.438;13.502;2022-11-20T18:54:55;99984.00;;;0.60
6454;BMP180;3260;52.438;13.502;2022-11-20T18:57:26;99973.00;;;0.70
6454;BMP180;3260;52.438;13.502;2022-11-20T18:59:56;99971.00;;;0.60
6454;BMP180;3260;52.438;13.502;2022-11-20T19:02:47;99968.00;;;0.10
6454;BMP180;3260;52.438;13.502;2022-11-20T19:05:15;99970.00;;;0.60
6454;BMP180;3260;52.438;13.502;2022-11-20T19:07:44;99970.00;;;0.50
6454;BMP180;3260;52.438;13.502;2022-11-20T19:10:13;99971.00;;;0.30
6454;BMP180;3260;52.438;13.502;2022-11-20T19:12:41;99971.00;;;0.60
6454;BMP180;3260;52.438;13.502;2022-11-20T19:15:10;99961.00;;;0.50
6454;BMP180;3260;52.438;13.502;2022-11-20T19:17:38;99974.00;;;0.70
6454;BMP180;3260;52.438;13.502;2022-11-20T19:20:09;99974.00;;;0.70
6454;BMP180;3260;52.438;13.502;2022-11-20T19:22:38;99971.00;;;0.50
6454;BMP180;3260;52.438;13.502;2022-11-20T19:25:07;99987.00;;;0.20
6454;BMP180;3260;52.438;13.502;2022-11-20T19:27:35;99981.00;;;0.10
6454;BMP180;3260;52.438;13.502;2022-11-20T19:30:05;99982.00;;;-0.20
6454;BMP180;3260;52.438;13.502;2022-11-20T19:32:33;99990.00;;;0.00
6454;BMP180;3260;52.438;13.502;2022-11-20T19:35:02;99992.00;;;0.40
6454;BMP180;3260;52.438;13.502;2022-11-20T19:37:33;99973.00;;;0.10
6454;BMP180;3260;52.438;13.502;2022-11-20T19:40:02;99983.00;;;0.40
6454;BMP180;3260;52.438;13.502;2022-11-20T19:42:31;99983.00;;;0.20
6454;BMP180;3260;52.438;13.502;2022-11-20T19:44:59;99977.00;;;0.30
6454;BMP180;3260;52.438;13.502;2022-11-20T19:47:28;99975.00;;;0.20
6454;BMP180;3260;52.438;13.502;2022-11-20T19:50:16;99967.00;;;0.70
6454;BMP180;3260;52.438;13.502;2022-11-20T19:52:46;99981.00;;;0.60
6454;BMP180;3260;52.438;13.502;2022-11-20T19:55:14;99963.00;;;0.30
6454;BMP180;3260;52.438;13.502;2022-11-20T19:57:42;99979.00;;;0.70
6454;BMP180;3260;52.438;13.502;2022-11-20T20:00:12;99979.00;;;0.20
6454;BMP180;3260;52.438;13.502;2022-11-20T20:02:52;99972.00;;;0.40